sensor_id;sensor_type;location;lat;lon;timestamp;temperature;humidity
26589;DHT22;14235;48.532;8.722;2022-07-29T02:03:57;18.00;99.90
26589;DHT22;14235;48.532;8.722;2022-07-29T02:18:42;17.80;99.90
26589;DHT22;14235;48.532;8.722;2022-07-29T02:21:12;17.80;99.90
26589;DHT22;14235;48.532;8.722;2022-07-29T02:26:07;17.60;99.90
26589;DHT22;14235;48.532;8.722;2022-07-29T02:28:34;17.70;99.90
26589;DHT22;14235;48.532;8.722;2022-07-29T02:31:02;18.00;99.90
26589;DHT22;14235;48.532;8.722;2022-07-29T02:33:29;18.20;99.90
26589;DHT22;14235;48.532;8.722;2022-07-29T02:35:56;17.90;99.90
26589;DHT22;14235;48.532;8.722;2022-07-29T02:38:24;18.20;99.90
26589;DHT22;14235;48.532;8.722;2022-07-29T02:41:27;17.90;99.90
26589;DHT22;14235;48.532;8.722;2022-07-29T02:43:58;17.80;99.90
26589;DHT22;14235;48.532;8.722;2022-07-29T02:46:32;17.60;99.90
26589;DHT22;14235;48.532;8.722;2022-07-29T02:52:08;17.60;99.90
26589;DHT22;14235;48.532;8.722;2022-07-29T02:54:44;17.50;99.90
26589;DHT22;14235;48.532;8.722;2022-07-29T02:57:20;17.60;99.90
26589;DHT22;14235;48.532;8.722;2022-07-29T02:59:49;17.40;99.90
26589;DHT22;14235;48.532;8.722;2022-07-29T03:02:17;17.30;99.90
26589;DHT22;14235;48.532;8.722;2022-07-29T03:04:44;17.30;99.90
26589;DHT22;14235;48.532;8.722;2022-07-29T03:07:11;17.30;99.90
26589;DHT22;14235;48.532;8.722;2022-07-29T03:09:38;17.20;99.90
26589;DHT22;14235;48.532;8.722;2022-07-29T03:12:06;17.40;99.90
26589;DHT22;14235;48.532;8.722;2022-07-29T03:14:32;17.30;99.90
26589;DHT22;14235;48.532;8.722;2022-07-29T03:16:58;17.30;99.90
26589;DHT22;14235;48.532;8.722;2022-07-29T03:19:24;17.60;99.90
26589;DHT22;14235;48.532;8.722;2022-07-29T03:21:50;17.40;99.90
26589;DHT22;14235;48.532;8.722;2022-07-29T03:24:28;17.10;99.90
26589;DHT22;14235;48.532;8.722;2022-07-29T03:26:55;17.50;99.90
26589;DHT22;14235;48.532;8.722;2022-07-29T03:29:21;17.40;99.90
26589;DHT22;14235;48.532;8.722;2022-07-29T03:31:47;17.40;99.90
26589;DHT22;14235;48.532;8.722;2022-07-29T03:34:12;17.40;99.90
26589;DHT22;14235;48.532;8.722;2022-07-29T03:36:38;17.40;99.90
26589;DHT22;14235;48.532;8.722;2022-07-29T03:39:04;17.30;99.90
26589;DHT22;14235;48.532;8.722;2022-07-29T03:41:31;16.90;99.90
26589;DHT22;14235;48.532;8.722;2022-07-29T03:43:58;17.20;99.90
26589;DHT22;14235;48.532;8.722;2022-07-29T03:46:26;17.10;99.90
26589;DHT22;14235;48.532;8.722;2022-07-29T03:48:57;17.00;99.90
26589;DHT22;14235;48.532;8.722;2022-07-29T03:51:24;17.00;99.90
26589;DHT22;14235;48.532;8.722;2022-07-29T03:53:50;17.30;99.90
26589;DHT22;14235;48.532;8.722;2022-07-29T03:56:16;17.10;99.90
26589;DHT22;14235;48.532;8.722;2022-07-29T03:58:44;17.10;99.90
26589;DHT22;14235;48.532;8.722;2022-07-29T04:01:11;17.10;99.90
26589;DHT22;14235;48.532;8.722;2022-07-29T04:03:37;17.10;99.90
26589;DHT22;14235;48.532;8.722;2022-07-29T04:06:05;16.80;99.90
26589;DHT22;14235;48.532;8.722;2022-07-29T04:08:32;16.80;99.90
26589;DHT22;14235;48.532;8.722;2022-07-29T04:10:58;16.80;99.90
26589;DHT22;14235;48.532;8.722;2022-07-29T04:13:24;16.70;99.90
26589;DHT22;14235;48.532;8.722;2022-07-29T04:15:50;16.60;99.90
26589;DHT22;14235;48.532;8.722;2022-07-29T04:18:16;16.70;99.90
26589;DHT22;14235;48.532;8.722;2022-07-29T04:20:41;16.70;99.90
26589;DHT22;14235;48.532;8.722;2022-07-29T04:23:07;16.60;99.90
26589;DHT22;14235;48.532;8.722;2022-07-29T04:25:32;16.60;99.90
26589;DHT22;14235;48.532;8.722;2022-07-29T04:27:58;16.80;99.90
26589;DHT22;14235;48.532;8.722;2022-07-29T04:30:27;16.70;99.90
26589;DHT22;14235;48.532;8.722;2022-07-29T04:32:52;16.80;99.90
26589;DHT22;14235;48.532;8.722;2022-07-29T04:35:19;17.00;99.90
26589;DHT22;14235;48.532;8.722;2022-07-29T04:37:44;16.70;99.90
26589;DHT22;14235;48.532;8.722;2022-07-29T04:40:11;16.90;99.90
26589;DHT22;14235;48.532;8.722;2022-07-29T04:42:37;16.60;99.90
26589;DHT22;14235;48.532;8.722;2022-07-29T04:45:03;16.60;99.90
26589;DHT22;14235;48.532;8.722;2022-07-29T04:47:29;16.60;99.90
26589;DHT22;14235;48.532;8.722;2022-07-29T04:49:54;16.50;99.90
26589;DHT22;14235;48.532;8.722;2022-07-29T04:52:21;16.60;99.90
26589;DHT22;14235;48.532;8.722;2022-07-29T04:54:47;16.60;99.90
26589;DHT22;14235;48.532;8.722;2022-07-29T04:57:13;16.60;99.90
26589;DHT22;14235;48.532;8.722;2022-07-29T04:59:38;16.50;99.90
26589;DHT22;14235;48.532;8.722;2022-07-29T05:02:04;16.80;99.90
26589;DHT22;14235;48.532;8.722;2022-07-29T05:04:29;16.60;99.90
26589;DHT22;14235;48.532;8.722;2022-07-29T05:06:55;16.80;99.90
26589;DHT22;14235;48.532;8.722;2022-07-29T05:09:20;16.80;99.90
26589;DHT22;14235;48.532;8.722;2022-07-29T05:11:46;16.70;99.90
26589;DHT22;14235;48.532;8.722;2022-07-29T05:14:11;16.80;99.90
26589;DHT22;14235;48.532;8.722;2022-07-29T05:16:37;16.90;99.90
26589;DHT22;14235;48.532;8.722;2022-07-29T05:19:04;16.70;99.90
26589;DHT22;14235;48.532;8.722;2022-07-29T05:21:30;16.90;99.90
26589;DHT22;14235;48.532;8.722;2022-07-29T05:23:55;17.20;99.90
26589;DHT22;14235;48.532;8.722;2022-07-29T05:26:21;17.20;99.90
26589;DHT22;14235;48.532;8.722;2022-07-29T05:28:46;17.00;99.90
26589;DHT22;14235;48.532;8.722;2022-07-29T05:31:12;17.00;99.90
26589;DHT22;14235;48.532;8.722;2022-07-29T05:33:40;17.00;99.90
26589;DHT22;14235;48.532;8.722;2022-07-29T05:36:06;16.90;99.90
26589;DHT22;14235;48.532;8.722;2022-07-29T05:38:32;16.90;99.90
26589;DHT22;14235;48.532;8.722;2022-07-29T05:40:58;17.10;99.90
26589;DHT22;14235;48.532;8.722;2022-07-29T05:45:52;17.20;99.90
26589;DHT22;14235;48.532;8.722;2022-07-29T05:48:17;17.80;99.90
26589;DHT22;14235;48.532;8.722;2022-07-29T05:50:43;17.60;99.90
26589;DHT22;14235;48.532;8.722;2022-07-29T05:53:08;17.70;99.90
26589;DHT22;14235;48.532;8.722;2022-07-29T05:55:34;17.60;99.90
26589;DHT22;14235;48.532;8.722;2022-07-29T05:57:59;17.60;99.90
26589;DHT22;14235;48.532;8.722;2022-07-29T06:00:25;17.90;99.90
26589;DHT22;14235;48.532;8.722;2022-07-29T06:02:50;17.70;99.90
26589;DHT22;14235;48.532;8.722;2022-07-29T06:05:16;17.80;99.90
26589;DHT22;14235;48.532;8.722;2022-07-29T06:07:42;17.70;99.90
26589;DHT22;14235;48.532;8.722;2022-07-29T06:10:08;18.10;99.90
26589;DHT22;14235;48.532;8.722;2022-07-29T06:12:34;18.20;99.90
26589;DHT22;14235;48.532;8.722;2022-07-29T06:17:26;18.30;99.90
26589;DHT22;14235;48.532;8.722;2022-07-29T06:19:52;18.20;99.90
26589;DHT22;14235;48.532;8.722;2022-07-29T06:22:17;18.40;99.90
26589;DHT22;14235;48.532;8.722;2022-07-29T06:24:43;18.70;99.90
26589;DHT22;14235;48.532;8.722;2022-07-29T06:27:10;18.50;99.90
26589;DHT22;14235;48.532;8.722;2022-07-29T06:29:36;18.60;99.90
26589;DHT22;14235;48.532;8.722;2022-07-29T06:32:01;18.70;99.90
26589;DHT22;14235;48.532;8.722;2022-07-29T06:34:27;18.70;99.90
26589;DHT22;14235;48.532;8.722;2022-07-29T06:36:53;18.80;99.90
26589;DHT22;14235;48.532;8.722;2022-07-29T06:39:19;18.70;99.90
26589;DHT22;14235;48.532;8.722;2022-07-29T06:41:48;19.00;99.90
26589;DHT22;14235;48.532;8.722;2022-07-29T06:44:17;18.90;99.90
26589;DHT22;14235;48.532;8.722;2022-07-29T06:46:43;18.90;99.90
26589;DHT22;14235;48.532;8.722;2022-07-29T06:49:09;18.80;99.90
26589;DHT22;14235;48.532;8.722;2022-07-29T06:51:35;19.00;99.90
26589;DHT22;14235;48.532;8.722;2022-07-29T06:54:01;19.10;99.90
26589;DHT22;14235;48.532;8.722;2022-07-29T06:56:31;19.00;99.90
26589;DHT22;14235;48.532;8.722;2022-07-29T06:58:57;19.00;99.90
26589;DHT22;14235;48.532;8.722;2022-07-29T07:01:23;19.30;99.90
26589;DHT22;14235;48.532;8.722;2022-07-29T07:03:48;19.20;99.90
26589;DHT22;14235;48.532;8.722;2022-07-29T07:06:14;19.30;99.90
26589;DHT22;14235;48.532;8.722;2022-07-29T07:08:40;19.30;99.90
26589;DHT22;14235;48.532;8.722;2022-07-29T07:11:05;19.50;99.90
26589;DHT22;14235;48.532;8.722;2022-07-29T07:13:32;19.60;99.90
26589;DHT22;14235;48.532;8.722;2022-07-29T07:16:00;19.60;99.90
26589;DHT22;14235;48.532;8.722;2022-07-29T07:18:26;19.80;99.90
26589;DHT22;14235;48.532;8.722;2022-07-29T07:20:51;19.80;99.90
26589;DHT22;14235;48.532;8.722;2022-07-29T07:23:17;19.70;99.90
26589;DHT22;14235;48.532;8.722;2022-07-29T07:25:42;19.90;99.90
26589;DHT22;14235;48.532;8.722;2022-07-29T07:30:35;20.00;99.90
26589;DHT22;14235;48.532;8.722;2022-07-29T07:33:01;20.00;99.90
26589;DHT22;14235;48.532;8.722;2022-07-29T07:35:26;20.30;99.90
26589;DHT22;14235;48.532;8.722;2022-07-29T07:37:53;20.30;99.90
26589;DHT22;14235;48.532;8.722;2022-07-29T07:40:19;20.40;99.90
26589;DHT22;14235;48.532;8.722;2022-07-29T07:42:45;20.30;99.90
26589;DHT22;14235;48.532;8.722;2022-07-29T07:45:11;20.60;99.90
26589;DHT22;14235;48.532;8.722;2022-07-29T07:47:37;20.60;99.90
26589;DHT22;14235;48.532;8.722;2022-07-29T07:50:05;20.70;99.90
26589;DHT22;14235;48.532;8.722;2022-07-29T07:52:31;20.70;99.90
26589;DHT22;14235;48.532;8.722;2022-07-29T07:54:57;20.70;99.90
26589;DHT22;14235;48.532;8.722;2022-07-29T07:57:22;20.80;99.90
26589;DHT22;14235;48.532;8.722;2022-07-29T07:59:48;20.80;99.90
26589;DHT22;14235;48.532;8.722;2022-07-29T08:02:13;20.90;99.90
26589;DHT22;14235;48.532;8.722;2022-07-29T08:04:39;20.80;99.90
26589;DHT22;14235;48.532;8.722;2022-07-29T08:07:06;20.80;99.90
26589;DHT22;14235;48.532;8.722;2022-07-29T08:09:32;20.80;99.90
26589;DHT22;14235;48.532;8.722;2022-07-29T08:11:58;20.90;99.90
26589;DHT22;14235;48.532;8.722;2022-07-29T08:14:24;20.80;99.90
26589;DHT22;14235;48.532;8.722;2022-07-29T08:16:50;21.10;99.90
26589;DHT22;14235;48.532;8.722;2022-07-29T08:19:16;21.10;99.90
26589;DHT22;14235;48.532;8.722;2022-07-29T08:21:42;21.00;99.90
26589;DHT22;14235;48.532;8.722;2022-07-29T08:24:07;21.10;99.90
26589;DHT22;14235;48.532;8.722;2022-07-29T08:26:51;21.10;99.90
26589;DHT22;14235;48.532;8.722;2022-07-29T08:29:17;21.20;99.90
26589;DHT22;14235;48.532;8.722;2022-07-29T08:31:42;21.40;99.90
26589;DHT22;14235;48.532;8.722;2022-07-29T08:34:08;21.60;99.90
26589;DHT22;14235;48.532;8.722;2022-07-29T08:36:34;22.00;99.90
26589;DHT22;14235;48.532;8.722;2022-07-29T08:39:01;21.70;99.90
26589;DHT22;14235;48.532;8.722;2022-07-29T08:41:27;21.90;99.90
26589;DHT22;14235;48.532;8.722;2022-07-29T08:43:52;22.00;99.90
26589;DHT22;14235;48.532;8.722;2022-07-29T08:46:19;22.00;99.90
26589;DHT22;14235;48.532;8.722;2022-07-29T08:48:46;22.10;99.90
26589;DHT22;14235;48.532;8.722;2022-07-29T08:51:18;22.10;99.90
26589;DHT22;14235;48.532;8.722;2022-07-29T08:53:46;22.10;99.90
26589;DHT22;14235;48.532;8.722;2022-07-29T08:56:15;22.30;99.90
26589;DHT22;14235;48.532;8.722;2022-07-29T08:58:47;22.20;99.90
26589;DHT22;14235;48.532;8.722;2022-07-29T09:01:16;22.40;99.90
26589;DHT22;14235;48.532;8.722;2022-07-29T09:03:44;22.50;99.90
26589;DHT22;14235;48.532;8.722;2022-07-29T09:06:15;22.80;99.90
26589;DHT22;14235;48.532;8.722;2022-07-29T09:08:42;22.80;99.90
26589;DHT22;14235;48.532;8.722;2022-07-29T09:11:08;22.90;99.90
26589;DHT22;14235;48.532;8.722;2022-07-29T09:13:34;23.00;99.90
26589;DHT22;14235;48.532;8.722;2022-07-29T09:16:00;23.10;99.90
26589;DHT22;14235;48.532;8.722;2022-07-29T09:18:38;23.20;99.90
26589;DHT22;14235;48.532;8.722;2022-07-29T09:21:07;23.10;99.90
26589;DHT22;14235;48.532;8.722;2022-07-29T09:24:11;23.30;99.90
26589;DHT22;14235;48.532;8.722;2022-07-29T09:26:40;23.30;99.90
26589;DHT22;14235;48.532;8.722;2022-07-29T09:29:10;23.40;99.90
26589;DHT22;14235;48.532;8.722;2022-07-29T09:31:39;23.50;99.90
26589;DHT22;14235;48.532;8.722;2022-07-29T09:34:05;23.50;99.90
26589;DHT22;14235;48.532;8.722;2022-07-29T09:36:42;23.60;99.90
26589;DHT22;14235;48.532;8.722;2022-07-29T09:39:08;23.70;99.90
26589;DHT22;14235;48.532;8.722;2022-07-29T09:46:40;24.10;99.90
26589;DHT22;14235;48.532;8.722;2022-07-29T10:01:41;24.50;99.90
26589;DHT22;14235;48.532;8.722;2022-07-29T10:04:06;24.80;99.90
26589;DHT22;14235;48.532;8.722;2022-07-29T10:06:32;24.80;99.90
26589;DHT22;14235;48.532;8.722;2022-07-29T10:09:10;24.90;99.90
26589;DHT22;14235;48.532;8.722;2022-07-29T10:11:36;24.90;99.90
26589;DHT22;14235;48.532;8.722;2022-07-29T10:14:03;25.00;99.90
26589;DHT22;14235;48.532;8.722;2022-07-29T10:16:30;25.10;99.90
26589;DHT22;14235;48.532;8.722;2022-07-29T10:18:59;25.20;99.90
26589;DHT22;14235;48.532;8.722;2022-07-29T10:21:27;25.40;99.70
26589;DHT22;14235;48.532;8.722;2022-07-29T10:23:55;25.40;99.90
26589;DHT22;14235;48.532;8.722;2022-07-29T10:26:22;25.40;97.00
26589;DHT22;14235;48.532;8.722;2022-07-29T10:28:48;25.50;95.20
26589;DHT22;14235;48.532;8.722;2022-07-29T10:31:23;25.40;96.90
26589;DHT22;14235;48.532;8.722;2022-07-29T10:34:16;25.30;97.10
26589;DHT22;14235;48.532;8.722;2022-07-29T10:37:07;25.30;96.00
26589;DHT22;14235;48.532;8.722;2022-07-29T10:39:56;25.40;97.00
26589;DHT22;14235;48.532;8.722;2022-07-29T10:42:28;25.50;97.00
26589;DHT22;14235;48.532;8.722;2022-07-29T10:44:54;25.60;95.60
26589;DHT22;14235;48.532;8.722;2022-07-29T10:47:25;26.10;99.60
26589;DHT22;14235;48.532;8.722;2022-07-29T10:50:02;25.50;99.90
26589;DHT22;14235;48.532;8.722;2022-07-29T10:55:51;25.20;99.90
26589;DHT22;14235;48.532;8.722;2022-07-29T10:58:23;25.30;99.90
26589;DHT22;14235;48.532;8.722;2022-07-29T11:00:51;25.30;99.90
26589;DHT22;14235;48.532;8.722;2022-07-29T11:03:42;25.30;99.90
26589;DHT22;14235;48.532;8.722;2022-07-29T11:06:09;25.20;99.90
26589;DHT22;14235;48.532;8.722;2022-07-29T11:08:35;25.10;99.90
26589;DHT22;14235;48.532;8.722;2022-07-29T11:11:30;25.20;99.90
26589;DHT22;14235;48.532;8.722;2022-07-29T11:13:56;25.10;99.90
26589;DHT22;14235;48.532;8.722;2022-07-29T11:16:22;25.00;99.90
26589;DHT22;14235;48.532;8.722;2022-07-29T11:21:36;25.10;99.90
26589;DHT22;14235;48.532;8.722;2022-07-29T11:24:35;25.10;99.90
26589;DHT22;14235;48.532;8.722;2022-07-29T11:27:17;25.20;99.90
26589;DHT22;14235;48.532;8.722;2022-07-29T11:29:57;25.20;99.90
26589;DHT22;14235;48.532;8.722;2022-07-29T11:32:36;25.30;99.90
26589;DHT22;14235;48.532;8.722;2022-07-29T11:35:18;25.40;99.90
26589;DHT22;14235;48.532;8.722;2022-07-29T11:42:42;25.40;99.90
26589;DHT22;14235;48.532;8.722;2022-07-29T11:45:44;25.50;99.90
26589;DHT22;14235;48.532;8.722;2022-07-29T11:48:04;25.60;99.90
26589;DHT22;14235;48.532;8.722;2022-07-29T11:50:33;25.60;99.90
26589;DHT22;14235;48.532;8.722;2022-07-29T11:55:25;25.50;99.90
26589;DHT22;14235;48.532;8.722;2022-07-29T11:57:53;25.60;99.90
26589;DHT22;14235;48.532;8.722;2022-07-29T12:00:38;25.70;99.90
26589;DHT22;14235;48.532;8.722;2022-07-29T12:03:06;25.60;99.90
26589;DHT22;14235;48.532;8.722;2022-07-29T12:05:42;25.50;99.90
26589;DHT22;14235;48.532;8.722;2022-07-29T12:08:13;25.50;99.80
26589;DHT22;14235;48.532;8.722;2022-07-29T12:10:40;25.40;99.20
26589;DHT22;14235;48.532;8.722;2022-07-29T12:13:06;25.40;99.60
26589;DHT22;14235;48.532;8.722;2022-07-29T12:15:32;25.30;99.90
26589;DHT22;14235;48.532;8.722;2022-07-29T12:17:57;25.20;98.90
26589;DHT22;14235;48.532;8.722;2022-07-29T12:20:28;25.00;98.90
26589;DHT22;14235;48.532;8.722;2022-07-29T12:22:55;24.80;99.30
26589;DHT22;14235;48.532;8.722;2022-07-29T12:25:23;24.70;99.90
26589;DHT22;14235;48.532;8.722;2022-07-29T12:27:59;24.40;99.90
26589;DHT22;14235;48.532;8.722;2022-07-29T12:30:35;24.10;99.90
26589;DHT22;14235;48.532;8.722;2022-07-29T12:33:10;23.70;99.90
26589;DHT22;14235;48.532;8.722;2022-07-29T12:35:36;23.60;99.90
26589;DHT22;14235;48.532;8.722;2022-07-29T12:38:02;23.40;99.90
26589;DHT22;14235;48.532;8.722;2022-07-29T12:40:28;23.20;99.90
26589;DHT22;14235;48.532;8.722;2022-07-29T12:45:37;23.20;99.90
26589;DHT22;14235;48.532;8.722;2022-07-29T12:48:03;23.20;99.90
26589;DHT22;14235;48.532;8.722;2022-07-29T12:50:29;23.00;99.90
26589;DHT22;14235;48.532;8.722;2022-07-29T12:53:08;23.10;99.90
26589;DHT22;14235;48.532;8.722;2022-07-29T12:55:45;23.00;99.90
26589;DHT22;14235;48.532;8.722;2022-07-29T12:58:25;22.90;99.90
26589;DHT22;14235;48.532;8.722;2022-07-29T13:01:03;23.00;99.90
26589;DHT22;14235;48.532;8.722;2022-07-29T13:03:44;23.00;99.90
26589;DHT22;14235;48.532;8.722;2022-07-29T13:09:11;23.00;99.90
26589;DHT22;14235;48.532;8.722;2022-07-29T13:11:43;23.00;99.90
26589;DHT22;14235;48.532;8.722;2022-07-29T13:14:13;23.10;99.90
26589;DHT22;14235;48.532;8.722;2022-07-29T13:19:35;23.40;99.90
26589;DHT22;14235;48.532;8.722;2022-07-29T13:22:00;23.40;99.90
26589;DHT22;14235;48.532;8.722;2022-07-29T13:24:26;23.40;99.90
26589;DHT22;14235;48.532;8.722;2022-07-29T13:26:51;23.10;99.90
26589;DHT22;14235;48.532;8.722;2022-07-29T13:29:17;23.10;99.90
26589;DHT22;14235;48.532;8.722;2022-07-29T13:31:43;23.10;99.90
26589;DHT22;14235;48.532;8.722;2022-07-29T13:34:09;23.40;99.90
26589;DHT22;14235;48.532;8.722;2022-07-29T13:36:34;23.30;99.90
26589;DHT22;14235;48.532;8.722;2022-07-29T13:39:00;23.20;99.90
26589;DHT22;14235;48.532;8.722;2022-07-29T13:41:28;23.20;99.90
26589;DHT22;14235;48.532;8.722;2022-07-29T13:43:54;23.20;99.90
26589;DHT22;14235;48.532;8.722;2022-07-29T13:46:21;23.30;99.90
26589;DHT22;14235;48.532;8.722;2022-07-29T13:48:46;23.20;99.90
26589;DHT22;14235;48.532;8.722;2022-07-29T13:51:12;23.20;99.90
26589;DHT22;14235;48.532;8.722;2022-07-29T13:53:38;23.20;99.90
26589;DHT22;14235;48.532;8.722;2022-07-29T13:56:04;23.10;99.90
26589;DHT22;14235;48.532;8.722;2022-07-29T13:58:33;23.20;99.90
26589;DHT22;14235;48.532;8.722;2022-07-29T14:00:59;23.30;99.90
26589;DHT22;14235;48.532;8.722;2022-07-29T14:03:25;23.40;99.90
26589;DHT22;14235;48.532;8.722;2022-07-29T14:08:18;23.40;99.90
26589;DHT22;14235;48.532;8.722;2022-07-29T14:10:44;23.50;99.90
26589;DHT22;14235;48.532;8.722;2022-07-29T14:13:09;23.60;99.90
26589;DHT22;14235;48.532;8.722;2022-07-29T14:15:35;23.70;99.90
26589;DHT22;14235;48.532;8.722;2022-07-29T14:18:01;23.30;99.90
26589;DHT22;14235;48.532;8.722;2022-07-29T14:20:27;23.80;99.90
26589;DHT22;14235;48.532;8.722;2022-07-29T14:22:55;23.90;99.90
26589;DHT22;14235;48.532;8.722;2022-07-29T14:25:20;24.00;99.90
26589;DHT22;14235;48.532;8.722;2022-07-29T14:27:46;23.90;99.90
26589;DHT22;14235;48.532;8.722;2022-07-29T14:30:12;23.90;99.90
26589;DHT22;14235;48.532;8.722;2022-07-29T14:32:38;23.90;99.90
26589;DHT22;14235;48.532;8.722;2022-07-29T14:35:04;23.90;99.90
26589;DHT22;14235;48.532;8.722;2022-07-29T14:37:30;24.00;99.90
26589;DHT22;14235;48.532;8.722;2022-07-29T14:39:55;24.00;99.90
26589;DHT22;14235;48.532;8.722;2022-07-29T14:42:24;24.00;99.90
26589;DHT22;14235;48.532;8.722;2022-07-29T14:44:50;24.00;99.90
26589;DHT22;14235;48.532;8.722;2022-07-29T14:47:16;24.10;99.90
26589;DHT22;14235;48.532;8.722;2022-07-29T14:49:41;24.00;99.90
26589;DHT22;14235;48.532;8.722;2022-07-29T14:52:07;24.20;99.90
26589;DHT22;14235;48.532;8.722;2022-07-29T14:54:32;24.20;99.90
26589;DHT22;14235;48.532;8.722;2022-07-29T14:56:58;24.30;99.90
26589;DHT22;14235;48.532;8.722;2022-07-29T14:59:23;24.50;99.90
26589;DHT22;14235;48.532;8.722;2022-07-29T15:01:49;24.50;99.90
26589;DHT22;14235;48.532;8.722;2022-07-29T15:04:15;24.60;99.90
26589;DHT22;14235;48.532;8.722;2022-07-29T15:06:40;24.90;99.90
26589;DHT22;14235;48.532;8.722;2022-07-29T15:09:06;24.90;99.90
26589;DHT22;14235;48.532;8.722;2022-07-29T15:11:32;24.90;99.90
26589;DHT22;14235;48.532;8.722;2022-07-29T15:13:57;24.80;99.90
26589;DHT22;14235;48.532;8.722;2022-07-29T15:16:23;24.70;99.90
26589;DHT22;14235;48.532;8.722;2022-07-29T15:18:49;25.00;99.90
26589;DHT22;14235;48.532;8.722;2022-07-29T15:21:15;25.10;99.90
26589;DHT22;14235;48.532;8.722;2022-07-29T15:23:40;25.20;99.80
26589;DHT22;14235;48.532;8.722;2022-07-29T15:26:06;25.30;99.90
26589;DHT22;14235;48.532;8.722;2022-07-29T15:28:31;25.20;98.20
26589;DHT22;14235;48.532;8.722;2022-07-29T15:30:57;25.40;97.50
26589;DHT22;14235;48.532;8.722;2022-07-29T15:33:23;25.40;98.20
26589;DHT22;14235;48.532;8.722;2022-07-29T15:35:49;25.60;97.50
26589;DHT22;14235;48.532;8.722;2022-07-29T15:38:15;25.50;96.90
26589;DHT22;14235;48.532;8.722;2022-07-29T15:40:41;25.70;97.70
26589;DHT22;14235;48.532;8.722;2022-07-29T15:43:08;25.80;95.60
26589;DHT22;14235;48.532;8.722;2022-07-29T15:45:39;25.90;95.30
26589;DHT22;14235;48.532;8.722;2022-07-29T15:48:05;26.50;95.30
26589;DHT22;14235;48.532;8.722;2022-07-29T15:50:32;26.50;94.60
26589;DHT22;14235;48.532;8.722;2022-07-29T15:52:58;26.80;94.30
26589;DHT22;14235;48.532;8.722;2022-07-29T15:55:23;26.90;94.10
26589;DHT22;14235;48.532;8.722;2022-07-29T16:05:09;26.90;94.10
26589;DHT22;14235;48.532;8.722;2022-07-29T19:23:46;22.10;90.80
26589;DHT22;14235;48.532;8.722;2022-07-29T19:26:12;22.30;90.00
26589;DHT22;14235;48.532;8.722;2022-07-29T19:28:38;22.00;90.30
26589;DHT22;14235;48.532;8.722;2022-07-29T19:31:03;21.90;90.80
26589;DHT22;14235;48.532;8.722;2022-07-29T19:33:29;22.00;90.00
26589;DHT22;14235;48.532;8.722;2022-07-29T19:35:55;21.70;90.20
26589;DHT22;14235;48.532;8.722;2022-07-29T19:38:21;21.70;90.80
26589;DHT22;14235;48.532;8.722;2022-07-29T19:40:47;21.50;91.10
26589;DHT22;14235;48.532;8.722;2022-07-29T19:43:12;21.40;91.50
26589;DHT22;14235;48.532;8.722;2022-07-29T19:45:38;21.40;92.20
26589;DHT22;14235;48.532;8.722;2022-07-29T19:48:04;21.30;92.00
26589;DHT22;14235;48.532;8.722;2022-07-29T19:50:30;21.00;92.50
26589;DHT22;14235;48.532;8.722;2022-07-29T19:52:56;21.10;93.70
26589;DHT22;14235;48.532;8.722;2022-07-29T19:55:22;20.90;94.10
26589;DHT22;14235;48.532;8.722;2022-07-29T19:57:48;20.90;95.30
26589;DHT22;14235;48.532;8.722;2022-07-29T20:00:15;20.70;96.60
26589;DHT22;14235;48.532;8.722;2022-07-29T20:02:40;20.60;97.70
26589;DHT22;14235;48.532;8.722;2022-07-29T20:05:08;20.60;97.80
26589;DHT22;14235;48.532;8.722;2022-07-29T20:07:34;20.50;97.90
26589;DHT22;14235;48.532;8.722;2022-07-29T20:10:00;20.40;98.70
26589;DHT22;14235;48.532;8.722;2022-07-29T20:12:26;20.40;98.90
26589;DHT22;14235;48.532;8.722;2022-07-29T20:14:52;20.20;99.20
26589;DHT22;14235;48.532;8.722;2022-07-29T20:17:18;20.10;99.30
26589;DHT22;14235;48.532;8.722;2022-07-29T20:19:44;20.20;99.60
26589;DHT22;14235;48.532;8.722;2022-07-29T20:22:10;20.10;98.80
26589;DHT22;14235;48.532;8.722;2022-07-29T20:24:36;20.10;98.70
26589;DHT22;14235;48.532;8.722;2022-07-29T20:27:02;20.00;98.90
26589;DHT22;14235;48.532;8.722;2022-07-29T20:29:27;19.80;99.30
26589;DHT22;14235;48.532;8.722;2022-07-29T20:31:53;19.90;99.50
26589;DHT22;14235;48.532;8.722;2022-07-29T20:34:18;19.80;99.90
26589;DHT22;14235;48.532;8.722;2022-07-29T20:36:44;19.70;99.90
26589;DHT22;14235;48.532;8.722;2022-07-29T20:39:10;19.70;99.90
26589;DHT22;14235;48.532;8.722;2022-07-29T20:41:36;20.20;99.90
26589;DHT22;14235;48.532;8.722;2022-07-29T20:44:02;19.70;99.90
26589;DHT22;14235;48.532;8.722;2022-07-29T20:48:54;19.40;97.20
26589;DHT22;14235;48.532;8.722;2022-07-29T20:51:20;19.60;98.30
26589;DHT22;14235;48.532;8.722;2022-07-29T20:53:46;19.20;99.30
26589;DHT22;14235;48.532;8.722;2022-07-29T20:56:12;19.00;99.90
26589;DHT22;14235;48.532;8.722;2022-07-29T20:58:38;19.00;99.90
26589;DHT22;14235;48.532;8.722;2022-07-29T21:01:05;19.20;99.90
26589;DHT22;14235;48.532;8.722;2022-07-29T21:03:31;19.10;99.90
26589;DHT22;14235;48.532;8.722;2022-07-29T21:05:58;18.90;99.90
26589;DHT22;14235;48.532;8.722;2022-07-29T21:08:24;19.00;99.90
26589;DHT22;14235;48.532;8.722;2022-07-29T21:10:50;18.90;99.90
26589;DHT22;14235;48.532;8.722;2022-07-29T21:13:16;18.90;99.90
26589;DHT22;14235;48.532;8.722;2022-07-29T21:15:42;18.90;99.90
26589;DHT22;14235;48.532;8.722;2022-07-29T21:18:10;18.80;99.90
26589;DHT22;14235;48.532;8.722;2022-07-29T21:20:58;18.80;99.90
26589;DHT22;14235;48.532;8.722;2022-07-29T21:23:24;18.80;99.90
26589;DHT22;14235;48.532;8.722;2022-07-29T21:25:51;18.80;99.90
26589;DHT22;14235;48.532;8.722;2022-07-29T21:28:16;18.70;99.90
26589;DHT22;14235;48.532;8.722;2022-07-29T21:30:52;18.50;99.90
26589;DHT22;14235;48.532;8.722;2022-07-29T21:33:18;18.50;99.90
26589;DHT22;14235;48.532;8.722;2022-07-29T21:35:44;18.50;99.90
26589;DHT22;14235;48.532;8.722;2022-07-29T21:38:09;18.40;99.90
26589;DHT22;14235;48.532;8.722;2022-07-29T21:40:35;18.50;99.90
26589;DHT22;14235;48.532;8.722;2022-07-29T21:43:01;18.40;99.90
26589;DHT22;14235;48.532;8.722;2022-07-29T21:45:26;18.50;99.90
26589;DHT22;14235;48.532;8.722;2022-07-29T21:47:52;18.30;99.90
26589;DHT22;14235;48.532;8.722;2022-07-29T21:50:17;18.40;99.90
26589;DHT22;14235;48.532;8.722;2022-07-29T21:52:43;18.20;99.90
26589;DHT22;14235;48.532;8.722;2022-07-29T21:55:08;18.10;99.90
26589;DHT22;14235;48.532;8.722;2022-07-29T21:57:34;18.20;99.90
26589;DHT22;14235;48.532;8.722;2022-07-29T22:00:00;18.50;99.90
26589;DHT22;14235;48.532;8.722;2022-07-29T22:02:25;18.00;99.90
26589;DHT22;14235;48.532;8.722;2022-07-29T22:04:51;17.90;99.90
26589;DHT22;14235;48.532;8.722;2022-07-29T22:07:16;17.80;99.90
26589;DHT22;14235;48.532;8.722;2022-07-29T22:09:42;18.00;99.90